createdAt,value
2018-08-20T00:01:54.988Z,6.93
2018-08-20T00:04:05.860Z,7.80
2018-08-20T00:06:10.137Z,7.90
2018-08-20T00:08:14.434Z,8.77
2018-08-20T00:10:18.653Z,7.93
2018-08-20T00:12:22.861Z,8.40
2018-08-20T00:14:27.049Z,8.00
2018-08-20T00:16:31.882Z,8.40
2018-08-20T00:18:36.190Z,8.23
2018-08-20T00:20:40.469Z,7.70
2018-08-20T00:22:44.718Z,9.30
2018-08-20T00:24:59.731Z,7.93
2018-08-20T00:27:04.053Z,8.00
2018-08-20T00:29:08.355Z,8.27
2018-08-20T00:31:12.677Z,8.70
2018-08-20T00:33:16.830Z,8.17
2018-08-20T00:35:21.056Z,7.97
2018-08-20T00:37:25.286Z,6.17
2018-08-20T00:39:29.461Z,8.30
2018-08-20T00:41:33.617Z,8.07
2018-08-20T00:43:37.872Z,8.00
2018-08-20T00:45:42.460Z,7.57
2018-08-20T00:47:46.642Z,8.73
2018-08-20T00:49:50.840Z,9.30
2018-08-20T00:51:55.045Z,9.43
2018-08-20T00:53:59.277Z,7.07
2018-08-20T00:56:03.521Z,7.77
2018-08-20T00:58:07.758Z,8.90
2018-08-20T01:00:12.333Z,8.80
2018-08-20T01:02:20.650Z,8.77
2018-08-20T01:04:24.806Z,9.60
2018-08-20T01:06:29.008Z,8.57
2018-08-20T01:08:33.251Z,9.90
2018-08-20T01:10:37.403Z,9.33
2018-08-20T01:12:41.706Z,9.70
2018-08-20T01:14:45.973Z,8.87
2018-08-20T01:16:50.206Z,9.70
2018-08-20T01:18:54.495Z,9.73
2018-08-20T01:20:59.727Z,9.03
2018-08-20T01:23:04.107Z,10.70
2018-08-20T01:25:08.323Z,10.30
2018-08-20T01:27:16.695Z,11.30
2018-08-20T01:29:20.886Z,9.13
2018-08-20T01:31:25.087Z,11.03
2018-08-20T01:33:29.322Z,9.00
2018-08-20T01:35:33.689Z,10.33
2018-08-20T01:37:37.939Z,11.63
2018-08-20T01:39:42.166Z,10.53
2018-08-20T01:41:46.467Z,10.23
2018-08-20T01:43:50.627Z,10.40
2018-08-20T01:46:03.498Z,11.17
2018-08-20T01:48:08.165Z,11.30
2018-08-20T01:50:12.589Z,9.93
2018-08-20T01:52:16.834Z,11.37
2018-08-20T01:54:21.012Z,11.13
2018-08-20T01:56:25.386Z,9.57
2018-08-20T01:58:29.629Z,9.97
2018-08-20T02:00:33.807Z,10.03
2018-08-20T02:02:38.026Z,9.37
2018-08-20T02:04:42.205Z,12.23
2018-08-20T02:06:46.406Z,10.77
2018-08-20T02:08:50.782Z,9.73
2018-08-20T02:10:55.027Z,11.97
2018-08-20T02:12:59.343Z,11.63
2018-08-20T02:15:04.996Z,10.90
2018-08-20T02:17:09.217Z,10.83
2018-08-20T02:19:13.463Z,10.73
2018-08-20T02:21:17.654Z,11.37
2018-08-20T02:23:21.950Z,11.63
2018-08-20T02:25:26.275Z,10.07
2018-08-20T02:27:30.410Z,10.30
2018-08-20T02:29:34.562Z,11.03
2018-08-20T02:31:38.815Z,11.37
2018-08-20T02:33:42.988Z,11.60
2018-08-20T02:35:47.244Z,11.07
2018-08-20T02:37:51.499Z,10.63
2018-08-20T02:39:55.951Z,10.77
2018-08-20T02:42:00.209Z,11.50
2018-08-20T02:44:04.583Z,9.87
2018-08-20T02:46:08.985Z,10.00
2018-08-20T02:48:13.238Z,11.10
2018-08-20T02:50:17.442Z,9.70
2018-08-20T02:52:21.658Z,10.73
2018-08-20T02:54:26.095Z,9.47
2018-08-20T02:56:30.310Z,10.80
2018-08-20T02:58:34.558Z,11.03
2018-08-20T03:00:41.860Z,10.43
2018-08-20T03:02:46.154Z,10.63
2018-08-20T03:04:50.429Z,10.80
2018-08-20T03:06:54.732Z,10.80
2018-08-20T03:09:00.594Z,10.97
2018-08-20T03:11:04.898Z,9.50
2018-08-20T03:13:09.116Z,9.23
2018-08-20T03:15:13.394Z,10.97
2018-08-20T03:17:19.505Z,10.80
2018-08-20T03:19:24.168Z,10.80
2018-08-20T03:21:28.449Z,11.17
2018-08-20T03:23:36.945Z,10.70
2018-08-20T03:25:41.244Z,11.73
2018-08-20T03:27:45.498Z,10.83
2018-08-20T03:29:49.693Z,10.57
2018-08-20T03:31:56.268Z,9.57
2018-08-20T03:34:01.131Z,11.60
2018-08-20T03:36:06.558Z,11.37
2018-08-20T03:38:10.800Z,11.50
2018-08-20T03:40:15.154Z,10.73
2018-08-20T03:42:19.412Z,11.37
2018-08-20T03:44:23.611Z,11.10
2018-08-20T03:46:28.371Z,11.60
2018-08-20T03:48:32.650Z,9.90
2018-08-20T03:50:40.152Z,9.77
2018-08-20T03:52:44.498Z,10.60
2018-08-20T03:54:48.725Z,9.40
2018-08-20T03:56:53.014Z,10.93
2018-08-20T03:58:57.316Z,10.17
2018-08-20T04:01:01.663Z,10.87
2018-08-20T04:03:06.205Z,10.80
2018-08-20T04:05:10.401Z,10.13
2018-08-20T04:07:14.777Z,9.90
2018-08-20T04:09:19.351Z,10.10
2018-08-20T04:11:24.673Z,8.33
2018-08-20T04:13:29.145Z,9.57
2018-08-20T04:15:33.451Z,8.30
2018-08-20T04:17:37.719Z,10.47
2018-08-20T04:19:41.953Z,9.47
2018-08-20T04:21:46.216Z,9.53
2018-08-20T04:23:50.374Z,8.67
2018-08-20T04:25:54.666Z,10.80
2018-08-20T04:27:58.862Z,9.87
2018-08-20T04:30:03.053Z,9.60
2018-08-20T04:32:07.349Z,10.20
2018-08-20T04:34:11.609Z,10.50
2018-08-20T04:36:15.880Z,8.70
2018-08-20T04:38:20.111Z,8.93
2018-08-20T04:40:24.411Z,10.13
2018-08-20T04:42:28.681Z,9.40
2018-08-20T04:44:32.854Z,9.63
2018-08-20T04:46:37.207Z,9.13
2018-08-20T04:48:41.429Z,9.57
2018-08-20T04:50:45.825Z,9.57
2018-08-20T04:52:50.213Z,10.13
2018-08-20T04:54:54.527Z,9.63
2018-08-20T04:56:58.814Z,9.93
2018-08-20T04:59:03.071Z,7.70
2018-08-20T05:01:07.896Z,8.77
2018-08-20T05:03:16.430Z,7.57
2018-08-20T05:05:20.645Z,9.63
2018-08-20T05:07:24.847Z,9.77
2018-08-20T05:09:29.048Z,10.00
2018-08-20T05:11:33.257Z,9.63
2018-08-20T05:13:37.464Z,9.07
2018-08-20T05:15:41.631Z,9.30
2018-08-20T05:17:45.835Z,8.40
2018-08-20T05:19:49.989Z,9.90
2018-08-20T05:21:54.240Z,7.70
2018-08-20T05:23:58.459Z,8.40
2018-08-20T05:26:02.730Z,8.03
2018-08-20T05:28:07.004Z,7.50
2018-08-20T05:30:11.185Z,7.70
2018-08-20T05:32:15.449Z,7.23
2018-08-20T05:34:19.699Z,7.40
2018-08-20T05:36:23.921Z,8.73
2018-08-20T05:38:28.167Z,8.83
2018-08-20T05:40:32.429Z,9.00
2018-08-20T05:42:36.588Z,9.10
2018-08-20T05:44:40.830Z,9.67
2018-08-20T05:46:44.997Z,7.40
2018-08-20T05:48:49.187Z,6.23
2018-08-20T05:50:53.364Z,6.10
2018-08-20T05:52:57.606Z,7.97
2018-08-20T05:55:01.903Z,6.97
2018-08-20T05:57:06.484Z,7.37
2018-08-20T05:59:10.869Z,6.50
2018-08-20T06:01:15.141Z,7.90
2018-08-20T06:03:19.326Z,8.10
2018-08-20T06:05:23.579Z,6.77
2018-08-20T06:07:27.810Z,7.73
2018-08-20T06:09:32.125Z,6.93
2018-08-20T06:11:36.532Z,7.90
2018-08-20T06:13:40.774Z,8.10
2018-08-20T06:15:45.010Z,8.10
2018-08-20T06:17:49.193Z,7.03
2018-08-20T06:19:53.454Z,7.87
2018-08-20T06:21:57.718Z,5.87
2018-08-20T06:24:01.946Z,6.67
2018-08-20T06:26:06.234Z,7.57
2018-08-20T06:28:10.575Z,6.90
2018-08-20T06:30:17.985Z,5.60
2018-08-20T06:32:22.165Z,5.87
2018-08-20T06:34:26.484Z,5.13
2018-08-20T06:36:30.845Z,5.23
2018-08-20T06:38:35.106Z,5.93
2018-08-20T06:40:39.361Z,5.47
2018-08-20T06:42:43.593Z,5.50
2018-08-20T06:44:47.832Z,6.17
2018-08-20T06:46:52.075Z,5.57
2018-08-20T06:48:56.290Z,4.40
2018-08-20T06:51:00.558Z,3.50
2018-08-20T06:53:04.862Z,3.63
2018-08-20T06:55:09.145Z,3.43
2018-08-20T06:57:13.342Z,2.30
2018-08-20T06:59:17.586Z,2.50
2018-08-20T07:01:21.851Z,2.60
2018-08-20T07:03:26.061Z,2.47
2018-08-20T07:05:30.266Z,2.40
2018-08-20T07:07:34.473Z,2.83
2018-08-20T07:09:38.734Z,2.30
2018-08-20T07:11:43.062Z,2.40
2018-08-20T07:13:47.313Z,2.10
2018-08-20T07:15:51.678Z,2.67
2018-08-20T07:17:56.150Z,2.63
2018-08-20T07:20:00.307Z,2.70
2018-08-20T07:22:04.683Z,2.23
2018-08-20T07:24:08.955Z,2.27
2018-08-20T07:26:13.316Z,2.17
2018-08-20T07:28:17.584Z,2.20
2018-08-20T07:30:21.779Z,2.30
2018-08-20T07:32:26.074Z,2.03
2018-08-20T07:34:30.355Z,2.20
2018-08-20T07:36:34.573Z,2.10
2018-08-20T07:38:38.796Z,1.93
2018-08-20T07:40:43.039Z,1.70
2018-08-20T07:42:47.271Z,1.90
2018-08-20T07:44:51.495Z,1.77
2018-08-20T07:46:55.758Z,1.90
2018-08-20T07:49:04.477Z,2.07
2018-08-20T07:51:08.773Z,1.80
2018-08-20T07:53:13.082Z,1.97
2018-08-20T07:55:17.417Z,2.20
2018-08-20T07:57:21.667Z,1.97
2018-08-20T07:59:25.870Z,1.97
2018-08-20T08:01:30.118Z,1.90
2018-08-20T08:03:34.470Z,1.50
2018-08-20T08:05:38.793Z,1.57
2018-08-20T08:07:43.091Z,1.70
2018-08-20T08:09:47.691Z,1.60
2018-08-20T08:11:51.939Z,1.73
2018-08-20T08:13:56.152Z,1.60
2018-08-20T08:16:00.358Z,2.03
2018-08-20T08:18:04.755Z,1.30
2018-08-20T08:20:10.531Z,1.90
2018-08-20T08:22:14.767Z,2.00
2018-08-20T08:24:18.998Z,1.67
2018-08-20T08:26:23.215Z,1.50
2018-08-20T08:28:27.455Z,1.30
2018-08-20T08:30:31.687Z,1.30
2018-08-20T08:32:35.923Z,1.40
2018-08-20T08:34:40.118Z,1.93
2018-08-20T08:36:44.454Z,1.60
2018-08-20T08:38:48.790Z,1.60
2018-08-20T08:40:52.980Z,1.50
2018-08-20T08:42:57.220Z,1.30
2018-08-20T08:45:01.565Z,1.60
2018-08-20T08:47:06.062Z,1.70
2018-08-20T08:49:10.209Z,1.40
2018-08-20T08:51:14.433Z,1.90
2018-08-20T08:53:18.642Z,1.47
2018-08-20T08:55:22.809Z,1.80
2018-08-20T08:57:27.162Z,1.00
2018-08-20T08:59:31.393Z,1.33
2018-08-20T09:01:35.587Z,1.20
2018-08-20T09:03:39.877Z,1.60
2018-08-20T09:05:44.009Z,1.80
2018-08-20T09:07:48.258Z,1.80
2018-08-20T09:09:52.503Z,1.40
2018-08-20T09:11:56.711Z,1.20
2018-08-20T09:14:00.992Z,1.50
2018-08-20T09:16:05.353Z,1.50
2018-08-20T09:18:09.773Z,1.77
2018-08-20T09:20:16.471Z,1.70
2018-08-20T09:22:20.717Z,1.80
2018-08-20T09:24:24.924Z,1.57
2018-08-20T09:26:29.175Z,1.47
2018-08-20T09:28:33.367Z,1.70
2018-08-20T09:30:37.571Z,1.43
2018-08-20T09:32:41.783Z,1.20
2018-08-20T09:34:45.944Z,1.40
2018-08-20T09:36:50.098Z,1.47
2018-08-20T09:38:54.344Z,1.00
2018-08-20T09:40:58.577Z,1.20
2018-08-20T09:43:02.746Z,0.80
2018-08-20T09:45:07.104Z,1.47
2018-08-20T09:47:11.306Z,1.20
2018-08-20T09:49:15.490Z,1.40
2018-08-20T09:51:26.153Z,1.10
2018-08-20T09:53:30.492Z,1.20
2018-08-20T09:55:34.682Z,1.00
2018-08-20T09:57:38.846Z,1.10
2018-08-20T09:59:43.061Z,1.10
2018-08-20T10:01:47.330Z,1.00
2018-08-20T10:03:51.530Z,0.97
2018-08-20T10:05:55.759Z,0.77
2018-08-20T10:07:59.957Z,1.07
2018-08-20T10:10:04.386Z,0.97
2018-08-20T10:12:08.677Z,0.90
2018-08-20T10:14:12.880Z,0.90
2018-08-20T10:16:17.088Z,0.93
2018-08-20T10:18:21.342Z,0.90
2018-08-20T10:20:25.512Z,0.90
2018-08-20T10:22:29.770Z,1.00
2018-08-20T10:24:34.035Z,0.80
2018-08-20T10:26:38.255Z,0.90
2018-08-20T10:28:42.486Z,1.30
2018-08-20T10:30:46.705Z,1.00
2018-08-20T10:32:50.913Z,0.80
2018-08-20T10:34:55.103Z,0.90
2018-08-20T10:36:59.350Z,1.00
2018-08-20T10:39:03.753Z,0.90
2018-08-20T10:41:07.978Z,1.20
2018-08-20T10:43:12.198Z,1.20
2018-08-20T10:45:19.613Z,1.20
2018-08-20T10:47:23.832Z,1.20
2018-08-20T10:49:28.063Z,1.10
2018-08-20T10:51:32.231Z,1.10
2018-08-20T10:53:36.428Z,1.20
2018-08-20T10:55:40.694Z,1.30
2018-08-20T10:57:45.544Z,1.20
2018-08-20T10:59:49.742Z,1.13
2018-08-20T11:01:53.970Z,1.33
2018-08-20T11:03:59.406Z,1.10
2018-08-20T11:06:03.779Z,1.10
2018-08-20T11:08:08.031Z,1.17
2018-08-20T11:10:12.413Z,1.00
2018-08-20T11:12:18.894Z,1.10
2018-08-20T11:14:23.063Z,1.17
2018-08-20T11:16:27.247Z,1.10
2018-08-20T11:18:31.869Z,1.10
2018-08-20T11:20:36.022Z,1.00
2018-08-20T11:22:40.676Z,1.00
2018-08-20T11:24:44.894Z,1.10
2018-08-20T11:26:49.865Z,1.30
2018-08-20T11:28:54.037Z,1.23
2018-08-20T11:30:58.221Z,1.40
2018-08-20T11:33:02.445Z,1.43
2018-08-20T11:35:07.051Z,1.47
2018-08-20T11:37:11.277Z,1.50
2018-08-20T11:39:15.558Z,1.50
2018-08-20T11:41:19.840Z,1.83
2018-08-20T11:43:24.111Z,1.27
2018-08-20T11:45:28.307Z,1.40
2018-08-20T11:47:32.560Z,1.60
2018-08-20T11:49:36.774Z,1.60
2018-08-20T11:51:40.892Z,1.50
2018-08-20T11:53:45.765Z,1.40
2018-08-20T11:55:50.029Z,1.70
2018-08-20T11:57:54.182Z,1.47
2018-08-20T11:59:58.390Z,1.57
2018-08-20T12:02:03.057Z,1.57
2018-08-20T12:04:07.335Z,1.67
2018-08-20T12:06:11.528Z,1.73
2018-08-20T12:08:15.795Z,1.80
2018-08-20T12:10:20.072Z,1.60
2018-08-20T12:12:24.325Z,1.70
2018-08-20T12:14:28.584Z,1.70
2018-08-20T12:16:32.791Z,1.83
2018-08-20T12:18:36.975Z,1.80
2018-08-20T12:20:41.175Z,2.10
2018-08-20T12:22:45.422Z,1.80
2018-08-20T12:24:49.600Z,1.57
2018-08-20T12:26:53.772Z,1.50
2018-08-20T12:28:57.975Z,1.40
2018-08-20T12:31:02.213Z,1.67
2018-08-20T12:33:06.391Z,1.47
2018-08-20T12:35:11.142Z,1.83
2018-08-20T12:37:15.619Z,2.10
2018-08-20T12:39:19.849Z,2.10
2018-08-20T12:41:24.036Z,2.13
2018-08-20T12:43:28.230Z,1.70
2018-08-20T12:45:32.414Z,1.53
2018-08-20T12:47:36.679Z,1.70
2018-08-20T12:49:40.842Z,1.20
2018-08-20T12:51:44.989Z,1.53
2018-08-20T12:53:49.230Z,1.20
2018-08-20T12:55:53.439Z,1.00
2018-08-20T12:57:57.730Z,1.00
2018-08-20T13:00:01.928Z,1.00
2018-08-20T13:02:06.481Z,1.00
2018-08-20T13:04:10.722Z,1.17
2018-08-20T13:06:14.882Z,1.40
2018-08-20T13:08:19.094Z,1.20
2018-08-20T13:10:23.356Z,1.03
2018-08-20T13:12:27.621Z,0.90
2018-08-20T13:14:31.743Z,1.20
2018-08-20T13:16:36.005Z,0.93
2018-08-20T13:18:40.751Z,1.20
2018-08-20T13:20:44.970Z,0.93
2018-08-20T13:22:49.142Z,0.90
2018-08-20T13:24:53.383Z,1.30
2018-08-20T13:26:57.559Z,1.30
2018-08-20T13:29:01.786Z,1.97
2018-08-20T13:31:06.102Z,1.37
2018-08-20T13:33:10.781Z,1.10
2018-08-20T13:35:14.975Z,1.30
2018-08-20T13:37:19.271Z,1.40
2018-08-20T13:39:23.488Z,1.97
2018-08-20T13:41:27.798Z,1.50
2018-08-20T13:43:32.063Z,1.57
2018-08-20T13:45:36.234Z,1.80
2018-08-20T13:47:40.462Z,2.00
2018-08-20T13:49:44.655Z,1.70
2018-08-20T13:51:48.907Z,1.50
2018-08-20T13:53:53.205Z,1.37
2018-08-20T13:55:57.498Z,1.70
2018-08-20T13:58:01.691Z,2.00
2018-08-20T14:00:06.331Z,1.60
2018-08-20T14:02:10.582Z,1.40
2018-08-20T14:04:14.742Z,1.83
2018-08-20T14:06:18.932Z,1.53
2018-08-20T14:08:23.089Z,1.40
2018-08-20T14:10:27.654Z,1.37
2018-08-20T14:12:31.827Z,1.23
2018-08-20T14:14:36.040Z,1.40
2018-08-20T14:16:40.251Z,1.67
2018-08-20T14:18:44.487Z,1.60
2018-08-20T14:20:59.463Z,1.60
2018-08-20T14:23:03.662Z,1.60
2018-08-20T14:25:07.968Z,1.30
2018-08-20T14:27:12.133Z,1.30
2018-08-20T14:29:16.338Z,1.60
2018-08-20T14:31:20.586Z,1.70
2018-08-20T14:33:24.757Z,1.50
2018-08-20T14:35:28.988Z,1.33
2018-08-20T14:37:33.353Z,1.73
2018-08-20T14:39:37.598Z,1.70
2018-08-20T14:41:41.860Z,1.60
2018-08-20T14:43:46.082Z,1.70
2018-08-20T14:45:55.312Z,1.30
2018-08-20T14:47:59.538Z,1.40
2018-08-20T14:50:03.887Z,1.10
2018-08-20T14:52:08.562Z,1.30
2018-08-20T14:54:12.780Z,1.57
2018-08-20T14:56:17.027Z,1.20
2018-08-20T14:58:21.386Z,1.10
2018-08-20T15:00:25.567Z,0.77
2018-08-20T15:02:29.791Z,0.77
2018-08-20T15:04:34.010Z,1.00
2018-08-20T15:06:53.034Z,0.80
2018-08-20T15:08:57.364Z,1.13
2018-08-20T15:11:01.541Z,0.90
2018-08-20T15:13:05.771Z,0.90
2018-08-20T15:15:10.170Z,1.00
2018-08-20T15:17:14.353Z,0.90
2018-08-20T15:19:19.026Z,0.90
2018-08-20T15:21:23.226Z,0.77
2018-08-20T15:23:27.442Z,0.77
2018-08-20T15:25:31.715Z,0.70
2018-08-20T15:27:35.989Z,0.90
2018-08-20T15:29:40.174Z,1.17
2018-08-20T15:31:44.410Z,1.27
2018-08-20T15:33:48.643Z,0.90
2018-08-20T15:35:52.834Z,0.60
2018-08-20T15:37:57.121Z,0.80
2018-08-20T15:40:01.339Z,0.70
2018-08-20T15:42:05.531Z,0.80
2018-08-20T15:44:10.701Z,0.60
2018-08-20T15:46:15.173Z,0.60
2018-08-20T15:48:19.311Z,0.60
2018-08-20T15:50:23.489Z,0.57
2018-08-20T15:52:27.746Z,0.80
2018-08-20T15:54:31.976Z,0.90
2018-08-20T15:56:36.168Z,0.60
2018-08-20T15:58:40.439Z,0.70
2018-08-20T16:00:44.690Z,0.70
2018-08-20T16:02:48.905Z,0.40
2018-08-20T16:04:53.102Z,0.53
2018-08-20T16:06:57.342Z,0.70
2018-08-20T16:09:01.507Z,0.67
2018-08-20T16:11:05.854Z,0.60
2018-08-20T16:13:09.958Z,1.20
2018-08-20T16:15:14.205Z,0.60
2018-08-20T16:17:18.471Z,0.43
2018-08-20T16:19:22.645Z,0.70
2018-08-20T16:21:26.903Z,0.77
2018-08-20T16:23:31.165Z,0.60
2018-08-20T16:25:35.687Z,0.60
2018-08-20T16:27:39.879Z,0.50
2018-08-20T16:29:44.029Z,0.70
2018-08-20T16:31:48.289Z,0.80
2018-08-20T16:33:52.495Z,0.90
2018-08-20T16:35:56.702Z,0.43
2018-08-20T16:38:00.984Z,0.63
2018-08-20T16:40:05.476Z,0.60
2018-08-20T16:42:09.651Z,0.50
2018-08-20T16:44:19.213Z,0.70
2018-08-20T16:46:24.678Z,0.70
2018-08-20T16:48:28.884Z,0.40
2018-08-20T16:50:33.123Z,0.33
2018-08-20T16:52:37.449Z,0.80
2018-08-20T16:54:41.654Z,0.40
2018-08-20T16:56:45.966Z,0.50
2018-08-20T16:58:50.302Z,0.50
2018-08-20T17:00:54.515Z,0.70
2018-08-20T17:02:58.703Z,0.40
2018-08-20T17:05:02.867Z,0.60
2018-08-20T17:07:07.252Z,0.50
2018-08-20T17:09:11.789Z,0.40
2018-08-20T17:11:15.914Z,0.60
2018-08-20T17:13:20.208Z,0.63
2018-08-20T17:15:24.415Z,0.40
2018-08-20T17:17:28.593Z,0.70
2018-08-20T17:19:32.796Z,0.57
2018-08-20T17:21:36.989Z,0.40
2018-08-20T17:23:41.173Z,0.60
2018-08-20T17:25:45.663Z,0.40
2018-08-20T17:27:53.999Z,0.90
2018-08-20T17:29:58.288Z,0.70
2018-08-20T17:32:03.778Z,0.43
2018-08-20T17:34:08.070Z,0.70
2018-08-20T17:36:12.263Z,0.70
2018-08-20T17:38:16.513Z,0.77
2018-08-20T17:40:20.758Z,0.50
2018-08-20T17:42:26.151Z,0.97
2018-08-20T17:44:30.356Z,0.80
2018-08-20T17:46:34.718Z,1.03
2018-08-20T17:48:41.255Z,0.50
2018-08-20T17:50:45.496Z,0.70
2018-08-20T17:52:49.644Z,1.00
2018-08-20T17:54:53.801Z,0.67
2018-08-20T17:56:58.147Z,0.80
2018-08-20T17:59:07.577Z,0.80
2018-08-20T18:01:11.774Z,0.70
2018-08-20T18:03:22.883Z,1.00
2018-08-20T18:05:27.406Z,0.73
2018-08-20T18:07:31.822Z,0.50
2018-08-20T18:09:36.010Z,0.90
2018-08-20T18:11:49.703Z,0.70
2018-08-20T18:13:53.923Z,0.80
2018-08-20T18:15:58.101Z,0.80
2018-08-20T18:18:02.362Z,0.90
2018-08-20T18:20:06.863Z,0.70
2018-08-20T18:22:11.038Z,0.90
2018-08-20T18:24:18.106Z,0.80
2018-08-20T18:26:29.601Z,0.70
2018-08-20T18:28:40.762Z,0.97
2018-08-20T18:30:45.039Z,1.10
2018-08-20T18:32:49.450Z,1.00
2018-08-20T18:34:53.756Z,0.83
2018-08-20T18:36:57.984Z,0.70
2018-08-20T18:39:08.996Z,1.00
2018-08-20T18:41:13.409Z,0.70
2018-08-20T18:43:17.665Z,0.80
2018-08-20T18:45:22.017Z,0.77
2018-08-20T18:47:26.194Z,0.80
2018-08-20T18:49:30.469Z,0.83
2018-08-20T18:51:34.687Z,0.70
2018-08-20T18:53:38.932Z,0.70
2018-08-20T18:55:52.845Z,1.27
2018-08-20T18:57:57.085Z,1.30
2018-08-20T19:00:03.046Z,0.63
2018-08-20T19:02:08.917Z,0.90
2018-08-20T19:04:13.187Z,0.87
2018-08-20T19:06:18.257Z,0.60
2018-08-20T19:08:26.366Z,0.70
2018-08-20T19:10:32.790Z,0.80
2018-08-20T19:12:37.060Z,0.70
2018-08-20T19:14:41.332Z,0.80
2018-08-20T19:16:45.536Z,0.80
2018-08-20T19:18:49.811Z,0.70
2018-08-20T19:20:54.053Z,0.67
2018-08-20T19:22:58.300Z,0.77
2018-08-20T19:25:02.508Z,0.90
2018-08-20T19:27:10.792Z,0.60
2018-08-20T19:29:24.557Z,0.63
2018-08-20T19:31:28.787Z,0.73
2018-08-20T19:33:33.032Z,0.80
2018-08-20T19:35:37.422Z,0.90
2018-08-20T19:37:41.751Z,0.83
2018-08-20T19:39:46.003Z,0.80
2018-08-20T19:41:50.265Z,0.73
2018-08-20T19:43:54.521Z,0.60
2018-08-20T19:45:58.849Z,0.70
2018-08-20T19:48:03.116Z,0.87
2018-08-20T19:50:08.806Z,0.70
2018-08-20T19:52:13.068Z,0.90
2018-08-20T19:54:17.668Z,0.80
2018-08-20T19:56:21.882Z,0.70
2018-08-20T19:58:31.201Z,0.67
2018-08-20T20:00:35.312Z,0.80
2018-08-20T20:02:43.273Z,0.80
2018-08-20T20:04:47.967Z,0.73
2018-08-20T20:06:52.153Z,0.80
2018-08-20T20:08:56.342Z,1.07
2018-08-20T20:11:00.486Z,1.10
2018-08-20T20:13:04.719Z,0.80
2018-08-20T20:15:08.893Z,0.80
2018-08-20T20:17:13.168Z,0.80
2018-08-20T20:19:17.705Z,1.00
2018-08-20T20:21:22.371Z,0.90
2018-08-20T20:23:26.582Z,1.10
2018-08-20T20:25:30.955Z,0.90
2018-08-20T20:27:35.191Z,1.00
2018-08-20T20:29:39.401Z,0.93
2018-08-20T20:31:44.025Z,0.90
2018-08-20T20:33:48.371Z,0.93
2018-08-20T20:35:56.081Z,1.00
2018-08-20T20:38:04.049Z,0.70
2018-08-20T20:40:12.325Z,1.20
2018-08-20T20:42:23.185Z,1.10
2018-08-20T20:44:27.785Z,1.13
2018-08-20T20:46:32.029Z,1.20
2018-08-20T20:48:37.354Z,0.70
2018-08-20T20:50:41.792Z,0.87
2018-08-20T20:52:46.017Z,0.80
2018-08-20T20:54:50.266Z,0.80
2018-08-20T20:56:54.494Z,1.00
2018-08-20T20:58:58.823Z,1.07
2018-08-20T21:01:04.716Z,0.90
2018-08-20T21:03:12.042Z,1.10
2018-08-20T21:05:16.411Z,1.00
2018-08-20T21:07:25.663Z,1.10
2018-08-20T21:09:33.966Z,1.03
2018-08-20T21:11:39.876Z,1.10
2018-08-20T21:13:44.562Z,0.83
2018-08-20T21:15:57.398Z,1.50
2018-08-20T21:18:03.518Z,1.00
2018-08-20T21:20:08.134Z,1.10
2018-08-20T21:22:12.367Z,0.97
2018-08-20T21:24:16.603Z,0.90
2018-08-20T21:26:21.029Z,1.57
2018-08-20T21:28:29.847Z,1.00
2018-08-20T21:30:38.480Z,0.93
2018-08-20T21:32:42.729Z,1.20
2018-08-20T21:34:47.141Z,0.90
2018-08-20T21:36:51.465Z,1.00
2018-08-20T21:38:55.804Z,1.17
2018-08-20T21:41:00.511Z,1.10
2018-08-20T21:43:06.825Z,1.13
2018-08-20T21:45:11.479Z,1.20
2018-08-20T21:47:25.592Z,1.07
2018-08-20T21:49:31.514Z,1.13
2018-08-20T21:51:44.945Z,1.30
2018-08-20T21:53:49.171Z,1.20
2018-08-20T21:55:54.043Z,1.10
2018-08-20T21:57:59.058Z,1.13
2018-08-20T22:00:10.139Z,1.43
2018-08-20T22:02:14.370Z,1.10
2018-08-20T22:04:20.313Z,1.17
2018-08-20T22:06:24.543Z,1.00
2018-08-20T22:08:28.792Z,1.20
2018-08-20T22:10:34.634Z,1.10
2018-08-20T22:12:39.741Z,1.00
2018-08-20T22:14:44.129Z,0.97
2018-08-20T22:16:48.401Z,1.10
2018-08-20T22:18:55.070Z,1.50
2018-08-20T22:20:59.409Z,1.20
2018-08-20T22:23:11.994Z,1.20
2018-08-20T22:25:11.025Z,1.03
2018-08-20T22:27:15.303Z,1.00
2018-08-20T22:29:19.897Z,0.97
2018-08-20T22:31:24.130Z,1.10
2018-08-20T22:33:28.458Z,1.10
2018-08-20T22:35:32.629Z,1.10
2018-08-20T22:37:36.871Z,0.90
2018-08-20T22:39:41.194Z,0.90
2018-08-20T22:41:45.596Z,1.00
2018-08-20T22:43:50.055Z,1.10
2018-08-20T22:45:54.263Z,1.10
2018-08-20T22:47:58.536Z,1.40
2018-08-20T22:50:02.705Z,1.20
2018-08-20T22:52:08.927Z,0.90
2018-08-20T22:54:14.137Z,1.13
2018-08-20T22:56:24.742Z,1.30
2018-08-20T22:58:28.969Z,0.90
2018-08-20T23:00:33.177Z,1.00
2018-08-20T23:02:37.496Z,1.30
2018-08-20T23:04:41.862Z,1.30
2018-08-20T23:06:46.107Z,1.27
2018-08-20T23:08:50.352Z,1.33
2018-08-20T23:10:54.636Z,1.00
2018-08-20T23:12:58.914Z,1.10
2018-08-20T23:15:03.231Z,1.00
2018-08-20T23:17:07.507Z,1.07
2018-08-20T23:19:11.720Z,0.90
2018-08-20T23:21:16.016Z,1.17
2018-08-20T23:23:25.479Z,1.10
2018-08-20T23:25:30.050Z,1.33
2018-08-20T23:27:39.422Z,0.90
2018-08-20T23:29:43.571Z,0.90
2018-08-20T23:31:47.749Z,1.00
2018-08-20T23:33:51.998Z,1.10
2018-08-20T23:35:56.223Z,1.23
2018-08-20T23:38:00.390Z,1.60
2018-08-20T23:40:05.332Z,1.50
2018-08-20T23:42:09.756Z,1.27
2018-08-20T23:44:16.929Z,0.97
2018-08-20T23:46:31.638Z,1.00
2018-08-20T23:48:35.834Z,1.27
2018-08-20T23:50:39.996Z,1.20
2018-08-20T23:52:44.278Z,1.03
2018-08-20T23:54:48.551Z,1.20
2018-08-20T23:56:52.724Z,1.40
2018-08-20T23:58:56.991Z,0.97
